createdAt,value
2023-11-07T00:01:42.655Z,6.43
2023-11-07T00:04:11.112Z,6.18
2023-11-07T00:06:42.691Z,6.13
2023-11-07T00:09:11.228Z,6.22
2023-11-07T00:11:40.742Z,6.28
2023-11-07T00:14:09.246Z,5.55
2023-11-07T00:16:37.657Z,5.93
2023-11-07T00:19:07.504Z,6.00
2023-11-07T00:21:35.936Z,5.90
2023-11-07T00:24:06.587Z,5.55
2023-11-07T00:26:35.457Z,5.15
2023-11-07T00:29:03.864Z,4.55
2023-11-07T00:31:32.378Z,5.30
2023-11-07T00:34:00.877Z,5.13
2023-11-07T00:36:29.288Z,5.03
2023-11-07T00:38:58.441Z,5.30
2023-11-07T00:41:28.278Z,5.07
2023-11-07T00:43:57.195Z,5.97
2023-11-07T00:46:25.522Z,4.95
2023-11-07T00:48:53.966Z,4.95
2023-11-07T00:51:22.492Z,6.00
2023-11-07T00:53:52.375Z,5.05
2023-11-07T00:56:21.676Z,5.93
2023-11-07T00:58:51.668Z,4.70
2023-11-07T01:01:20.272Z,4.88
2023-11-07T01:03:48.749Z,4.95
2023-11-07T01:06:17.309Z,5.78
2023-11-07T01:08:46.855Z,5.70
2023-11-07T01:11:15.336Z,5.65
2023-11-07T01:13:43.773Z,5.50
2023-11-07T01:16:13.675Z,6.18
2023-11-07T01:18:42.077Z,6.13
2023-11-07T01:21:11.365Z,6.30
2023-11-07T01:23:40.113Z,5.88
2023-11-07T01:26:08.706Z,6.32
2023-11-07T01:28:36.991Z,6.55
2023-11-07T01:31:06.110Z,6.40
2023-11-07T01:33:36.120Z,6.28
2023-11-07T01:36:04.978Z,6.63
2023-11-07T01:38:34.676Z,6.68
2023-11-07T01:41:03.022Z,6.25
2023-11-07T01:43:32.878Z,7.47
2023-11-07T01:46:04.152Z,8.02
2023-11-07T01:48:33.204Z,7.30
2023-11-07T01:51:05.289Z,7.50
2023-11-07T01:53:34.277Z,8.30
2023-11-07T01:56:03.488Z,8.73
2023-11-07T01:58:31.960Z,9.82
2023-11-07T02:01:00.394Z,9.80
2023-11-07T02:03:28.840Z,8.85
2023-11-07T02:05:57.273Z,9.25
2023-11-07T02:08:27.640Z,9.48
2023-11-07T02:10:56.005Z,9.20
2023-11-07T02:13:24.272Z,8.73
2023-11-07T02:15:52.645Z,10.43
2023-11-07T02:18:21.117Z,10.27
2023-11-07T02:20:49.833Z,9.90
2023-11-07T02:23:30.907Z,8.70
2023-11-07T02:25:59.345Z,9.30
2023-11-07T02:28:27.670Z,9.55
2023-11-07T02:30:56.271Z,9.85
2023-11-07T02:33:24.736Z,9.45
2023-11-07T02:35:53.157Z,9.43
2023-11-07T02:38:23.828Z,9.35
2023-11-07T02:40:53.572Z,8.85
2023-11-07T02:43:21.956Z,9.45
2023-11-07T02:45:51.022Z,9.15
2023-11-07T02:48:19.533Z,8.70
2023-11-07T02:50:47.983Z,8.88
2023-11-07T02:53:16.572Z,8.18
2023-11-07T02:55:44.899Z,8.43
2023-11-07T02:58:14.817Z,7.90
2023-11-07T03:00:43.429Z,7.65
2023-11-07T03:03:11.906Z,7.63
2023-11-07T03:05:40.449Z,8.57
2023-11-07T03:08:09.348Z,8.13
2023-11-07T03:10:37.889Z,6.80
2023-11-07T03:13:06.622Z,7.72
2023-11-07T03:15:36.342Z,8.07
2023-11-07T03:18:05.016Z,7.45
2023-11-07T03:20:34.387Z,6.85
2023-11-07T03:23:02.742Z,8.13
2023-11-07T03:25:31.565Z,7.38
2023-11-07T03:27:59.866Z,6.82
2023-11-07T03:30:28.920Z,7.35
2023-11-07T03:32:58.850Z,8.35
2023-11-07T03:35:28.556Z,7.60
2023-11-07T03:37:59.316Z,7.28
2023-11-07T03:40:27.602Z,7.22
2023-11-07T03:42:56.009Z,8.00
2023-11-07T03:45:24.327Z,7.60
2023-11-07T03:47:53.001Z,7.93
2023-11-07T03:50:23.974Z,7.20
2023-11-07T03:52:52.261Z,7.10
2023-11-07T03:55:20.607Z,7.40
2023-11-07T03:57:49.206Z,6.90
2023-11-07T04:00:18.163Z,6.57
2023-11-07T04:02:46.689Z,6.40
2023-11-07T04:05:15.302Z,7.07
2023-11-07T04:07:45.112Z,6.97
2023-11-07T04:10:14.407Z,6.72
2023-11-07T04:12:42.848Z,6.00
2023-11-07T04:15:13.595Z,5.57
2023-11-07T04:17:42.925Z,5.97
2023-11-07T04:20:12.701Z,5.05
2023-11-07T04:22:41.494Z,5.53
2023-11-07T04:25:12.453Z,6.00
2023-11-07T04:27:43.393Z,5.32
2023-11-07T04:30:12.984Z,5.97
2023-11-07T04:32:42.561Z,5.28
2023-11-07T04:35:13.259Z,4.85
2023-11-07T04:37:41.822Z,5.63
2023-11-07T04:40:12.570Z,5.00
2023-11-07T04:42:40.953Z,5.70
2023-11-07T04:45:09.978Z,5.22
2023-11-07T04:47:38.577Z,5.20
2023-11-07T04:50:07.728Z,5.63
2023-11-07T04:52:36.057Z,5.13
2023-11-07T04:55:04.617Z,4.35
2023-11-07T04:57:34.357Z,4.88
2023-11-07T05:00:04.380Z,4.78
2023-11-07T05:02:32.804Z,3.72
2023-11-07T05:05:01.212Z,4.18
2023-11-07T05:07:29.558Z,4.80
2023-11-07T05:09:59.922Z,4.60
2023-11-07T05:12:28.479Z,4.07
2023-11-07T05:14:58.271Z,4.35
2023-11-07T05:17:26.671Z,4.30
2023-11-07T05:19:55.350Z,4.55
2023-11-07T05:22:25.184Z,4.75
2023-11-07T05:24:53.820Z,4.63
2023-11-07T05:27:22.774Z,4.07
2023-11-07T05:29:51.178Z,4.13
2023-11-07T05:32:20.982Z,4.72
2023-11-07T05:34:49.380Z,4.30
2023-11-07T05:37:17.863Z,4.28
2023-11-07T05:39:46.502Z,4.78
2023-11-07T05:42:15.964Z,4.53
2023-11-07T05:44:44.459Z,4.53
2023-11-07T05:47:12.826Z,4.28
2023-11-07T05:49:42.529Z,4.35
2023-11-07T05:52:11.819Z,4.13
2023-11-07T05:54:40.379Z,5.30
2023-11-07T05:57:09.971Z,5.78
2023-11-07T05:59:38.507Z,4.32
2023-11-07T06:02:07.479Z,4.88
2023-11-07T06:04:37.541Z,4.63
2023-11-07T06:07:07.493Z,4.85
2023-11-07T06:09:35.781Z,5.18
2023-11-07T06:12:04.268Z,4.82
2023-11-07T06:14:32.629Z,5.13
2023-11-07T06:17:00.982Z,5.10
2023-11-07T06:19:29.840Z,5.25
2023-11-07T06:21:58.186Z,5.22
2023-11-07T06:24:27.908Z,5.30
2023-11-07T06:26:56.612Z,5.40
2023-11-07T06:29:26.269Z,5.13
2023-11-07T06:31:55.013Z,5.43
2023-11-07T06:34:26.572Z,4.80
2023-11-07T06:36:55.500Z,4.90
2023-11-07T06:39:25.040Z,5.10
2023-11-07T06:41:56.510Z,4.95
2023-11-07T06:44:25.337Z,5.43
2023-11-07T06:46:54.859Z,4.57
2023-11-07T06:49:23.453Z,5.13
2023-11-07T06:51:52.232Z,5.30
2023-11-07T06:54:20.516Z,4.93
2023-11-07T06:56:49.220Z,5.07
2023-11-07T06:59:19.177Z,5.20
2023-11-07T07:01:47.618Z,5.00
2023-11-07T07:04:16.105Z,5.28
2023-11-07T07:06:44.518Z,5.25
2023-11-07T07:09:15.147Z,4.93
2023-11-07T07:11:43.544Z,5.55
2023-11-07T07:14:12.097Z,5.10
2023-11-07T07:16:42.256Z,5.15
2023-11-07T07:19:10.861Z,5.22
2023-11-07T07:21:39.841Z,5.65
2023-11-07T07:24:17.182Z,5.30
2023-11-07T07:26:47.354Z,5.78
2023-11-07T07:29:17.625Z,5.10
2023-11-07T07:31:47.383Z,4.95
2023-11-07T07:34:15.818Z,5.28
2023-11-07T07:36:48.891Z,5.00
2023-11-07T07:39:29.669Z,5.40
2023-11-07T07:41:59.157Z,5.20
2023-11-07T07:44:28.809Z,5.07
2023-11-07T07:46:58.945Z,5.18
2023-11-07T07:49:28.091Z,5.22
2023-11-07T07:51:59.688Z,5.05
2023-11-07T07:54:52.246Z,4.85
2023-11-07T07:57:19.252Z,5.22
2023-11-07T07:59:47.861Z,5.25
2023-11-07T08:02:17.770Z,4.90
2023-11-07T08:04:47.960Z,5.30
2023-11-07T08:07:18.333Z,6.05
2023-11-07T08:09:46.786Z,5.82
2023-11-07T08:12:15.149Z,5.47
2023-11-07T08:14:46.510Z,5.60
2023-11-07T08:17:14.893Z,5.18
2023-11-07T08:19:44.661Z,5.70
2023-11-07T08:22:13.038Z,5.43
2023-11-07T08:24:41.422Z,5.30
2023-11-07T08:27:12.176Z,5.47
2023-11-07T08:29:40.518Z,4.47
2023-11-07T08:32:09.426Z,5.03
2023-11-07T08:34:37.952Z,5.28
2023-11-07T08:37:11.539Z,5.20
2023-11-07T08:39:42.311Z,5.13
2023-11-07T08:42:11.899Z,5.50
2023-11-07T08:44:41.487Z,5.30
2023-11-07T08:47:09.941Z,4.65
2023-11-07T08:49:39.126Z,5.38
2023-11-07T08:52:09.213Z,5.88
2023-11-07T08:54:38.387Z,4.45
2023-11-07T08:57:07.204Z,5.07
2023-11-07T08:59:37.780Z,5.22
2023-11-07T09:02:06.863Z,5.50
2023-11-07T09:04:35.674Z,5.68
2023-11-07T09:07:04.806Z,5.40
2023-11-07T09:09:35.566Z,5.22
2023-11-07T09:12:03.942Z,4.40
2023-11-07T09:14:32.318Z,5.53
2023-11-07T09:17:00.622Z,5.43
2023-11-07T09:19:29.102Z,5.22
2023-11-07T09:21:57.886Z,4.45
2023-11-07T09:24:26.699Z,5.50
2023-11-07T09:26:57.180Z,4.82
2023-11-07T09:29:25.851Z,5.40
2023-11-07T09:31:54.860Z,5.05
2023-11-07T09:34:23.412Z,5.35
2023-11-07T09:36:51.795Z,4.75
2023-11-07T09:39:20.177Z,4.53
2023-11-07T09:41:48.577Z,4.40
2023-11-07T09:44:18.379Z,4.45
2023-11-07T09:46:49.612Z,4.38
2023-11-07T09:49:18.131Z,4.10
2023-11-07T09:51:48.316Z,4.43
2023-11-07T09:54:24.201Z,4.22
2023-11-07T09:56:56.252Z,4.22
2023-11-07T09:59:35.766Z,4.18
2023-11-07T10:02:05.105Z,4.15
2023-11-07T10:04:34.346Z,4.68
2023-11-07T10:07:04.176Z,4.63
2023-11-07T10:09:33.562Z,4.63
2023-11-07T10:12:02.157Z,4.03
2023-11-07T10:14:35.793Z,4.07
2023-11-07T10:17:05.611Z,4.05
2023-11-07T10:19:34.148Z,4.15
2023-11-07T10:22:08.077Z,3.92
2023-11-07T10:24:45.354Z,4.63
2023-11-07T10:27:14.886Z,4.15
2023-11-07T10:29:59.579Z,4.13
2023-11-07T10:32:45.848Z,4.45
2023-11-07T10:35:16.199Z,4.28
2023-11-07T10:37:45.273Z,5.35
2023-11-07T10:40:13.919Z,4.47
2023-11-07T10:42:48.549Z,4.60
2023-11-07T10:45:18.839Z,4.65
2023-11-07T10:47:50.177Z,4.32
2023-11-07T10:50:19.527Z,5.00
2023-11-07T10:52:49.243Z,4.65
2023-11-07T10:55:18.177Z,4.18
2023-11-07T10:57:53.240Z,4.60
2023-11-07T11:00:23.303Z,5.03
2023-11-07T11:02:56.653Z,4.63
2023-11-07T11:05:26.405Z,4.97
2023-11-07T11:07:58.588Z,4.88
2023-11-07T11:10:29.789Z,4.68
2023-11-07T11:12:58.554Z,4.80
2023-11-07T11:15:29.869Z,4.65
2023-11-07T11:18:03.660Z,4.70
2023-11-07T11:20:40.358Z,4.93
2023-11-07T11:23:17.319Z,4.78
2023-11-07T11:26:14.981Z,4.22
2023-11-07T11:28:44.724Z,4.47
2023-11-07T11:31:21.998Z,4.88
2023-11-07T11:33:52.473Z,4.70
2023-11-07T11:36:45.583Z,4.65
2023-11-07T11:39:53.880Z,4.90
2023-11-07T11:42:22.231Z,4.25
2023-11-07T11:45:35.010Z,4.85
2023-11-07T11:48:10.795Z,3.92
2023-11-07T11:50:40.596Z,4.45
2023-11-07T11:53:10.513Z,4.20
2023-11-07T11:56:13.222Z,4.30
2023-11-07T11:58:42.278Z,4.13
2023-11-07T12:01:12.517Z,4.00
2023-11-07T12:03:48.060Z,4.15
2023-11-07T12:06:17.930Z,4.57
2023-11-07T12:08:47.795Z,3.90
2023-11-07T12:11:16.208Z,4.00
2023-11-07T12:13:44.508Z,4.40
2023-11-07T12:16:16.787Z,4.47
2023-11-07T12:18:48.731Z,4.50
2023-11-07T12:21:25.997Z,5.20
2023-11-07T12:23:57.171Z,4.07
2023-11-07T12:26:40.356Z,4.38
2023-11-07T12:29:09.977Z,3.70
2023-11-07T12:31:39.731Z,4.30
2023-11-07T12:34:11.192Z,3.80
2023-11-07T12:36:41.370Z,3.97
2023-11-07T12:39:11.311Z,3.88
2023-11-07T12:41:40.338Z,4.00
2023-11-07T12:44:18.029Z,3.78
2023-11-07T12:46:47.215Z,4.20
2023-11-07T12:49:20.582Z,4.05
2023-11-07T12:51:49.157Z,4.32
2023-11-07T12:54:18.520Z,4.68
2023-11-07T12:56:49.564Z,3.83
2023-11-07T12:59:19.278Z,4.05
2023-11-07T13:01:49.188Z,3.72
2023-11-07T13:04:20.181Z,3.90
2023-11-07T13:06:56.174Z,4.07
2023-11-07T13:09:32.050Z,3.88
2023-11-07T13:12:11.261Z,4.25
2023-11-07T13:14:40.762Z,4.00
2023-11-07T13:17:09.950Z,3.80
2023-11-07T13:19:40.526Z,3.90
2023-11-07T13:22:11.217Z,4.45
2023-11-07T13:24:39.951Z,3.72
2023-11-07T13:27:09.649Z,3.97
2023-11-07T13:29:38.004Z,4.32
2023-11-07T13:32:07.745Z,3.97
2023-11-07T13:34:36.664Z,3.70
2023-11-07T13:37:06.851Z,4.50
2023-11-07T13:39:35.205Z,4.20
2023-11-07T13:42:03.594Z,4.05
2023-11-07T13:44:31.947Z,3.85
2023-11-07T13:47:00.229Z,4.40
2023-11-07T13:49:29.103Z,3.80
2023-11-07T13:51:57.379Z,3.92
2023-11-07T13:54:27.469Z,4.20
2023-11-07T13:56:56.332Z,3.97
2023-11-07T13:59:24.846Z,3.85
2023-11-07T14:01:53.179Z,3.47
2023-11-07T14:04:23.315Z,4.05
2023-11-07T14:06:51.707Z,3.80
2023-11-07T14:09:20.230Z,3.90
2023-11-07T14:11:50.091Z,3.53
2023-11-07T14:14:21.439Z,3.30
2023-11-07T14:16:50.706Z,3.28
2023-11-07T14:19:19.176Z,2.35
2023-11-07T14:21:48.535Z,2.65
2023-11-07T14:24:16.865Z,2.20
2023-11-07T14:26:45.764Z,2.05
2023-11-07T14:29:33.707Z,2.00
2023-11-07T14:32:04.013Z,2.17
2023-11-07T14:34:32.377Z,1.85
2023-11-07T14:37:00.795Z,2.00
2023-11-07T14:39:31.101Z,1.85
2023-11-07T14:41:59.852Z,2.30
2023-11-07T14:44:29.570Z,2.10
2023-11-07T14:46:57.896Z,2.40
2023-11-07T14:49:26.295Z,2.20
2023-11-07T14:51:55.720Z,2.30
2023-11-07T14:54:24.104Z,2.58
2023-11-07T14:57:00.920Z,2.33
2023-11-07T14:59:34.090Z,2.75
2023-11-07T15:02:09.247Z,2.65
2023-11-07T15:04:42.825Z,2.53
2023-11-07T15:07:11.796Z,2.70
2023-11-07T15:09:41.406Z,2.80
2023-11-07T15:12:09.818Z,3.10
2023-11-07T15:14:39.534Z,3.30
2023-11-07T15:17:07.981Z,2.55
2023-11-07T15:19:36.342Z,2.97
2023-11-07T15:22:06.003Z,2.97
2023-11-07T15:24:35.631Z,3.10
2023-11-07T15:27:05.972Z,3.08
2023-11-07T15:29:37.141Z,3.33
2023-11-07T15:32:08.221Z,2.88
2023-11-07T15:34:37.950Z,3.50
2023-11-07T15:37:07.048Z,3.97
2023-11-07T15:39:35.403Z,3.38
2023-11-07T15:42:03.735Z,3.50
2023-11-07T15:44:32.084Z,4.00
2023-11-07T15:47:00.427Z,3.33
2023-11-07T15:49:30.268Z,3.85
2023-11-07T15:51:58.626Z,3.35
2023-11-07T15:54:27.313Z,3.70
2023-11-07T15:56:55.715Z,3.35
2023-11-07T15:59:24.021Z,3.58
2023-11-07T16:01:52.642Z,3.08
2023-11-07T16:04:20.994Z,3.85
2023-11-07T16:06:51.226Z,3.55
2023-11-07T16:09:19.633Z,3.75
2023-11-07T16:11:48.911Z,3.42
2023-11-07T16:14:17.256Z,3.30
2023-11-07T16:16:45.765Z,3.33
2023-11-07T16:19:14.130Z,3.25
2023-11-07T16:21:42.438Z,2.95
2023-11-07T16:24:13.716Z,3.30
2023-11-07T16:26:42.057Z,3.47
2023-11-07T16:29:10.411Z,3.28
2023-11-07T16:31:38.765Z,3.13
2023-11-07T16:34:07.171Z,2.50
2023-11-07T16:36:35.520Z,2.90
2023-11-07T16:39:06.396Z,2.70
2023-11-07T16:41:36.374Z,3.25
2023-11-07T16:44:04.682Z,2.70
2023-11-07T16:46:33.026Z,2.75
2023-11-07T16:49:01.468Z,3.20
2023-11-07T16:51:32.776Z,3.05
2023-11-07T16:54:02.042Z,3.05
2023-11-07T16:56:30.383Z,2.88
2023-11-07T16:59:00.147Z,3.15
2023-11-07T17:01:29.137Z,2.88
2023-11-07T17:03:57.881Z,2.95
2023-11-07T17:06:26.334Z,3.70
2023-11-07T17:08:55.164Z,3.08
2023-11-07T17:11:23.462Z,2.67
2023-11-07T17:13:51.798Z,2.83
2023-11-07T17:16:21.544Z,3.05
2023-11-07T17:18:50.129Z,2.90
2023-11-07T17:21:19.610Z,2.67
2023-11-07T17:23:48.603Z,3.13
2023-11-07T17:26:16.953Z,2.95
2023-11-07T17:28:45.259Z,3.15
2023-11-07T17:31:13.893Z,2.97
2023-11-07T17:33:44.733Z,2.63
2023-11-07T17:36:13.259Z,3.45
2023-11-07T17:38:41.630Z,3.00
2023-11-07T17:41:16.388Z,2.63
2023-11-07T17:43:46.042Z,3.00
2023-11-07T17:46:16.353Z,2.85
2023-11-07T17:48:46.144Z,3.72
2023-11-07T17:51:21.734Z,2.88
2023-11-07T17:53:53.285Z,3.13
2023-11-07T17:56:21.966Z,3.30
2023-11-07T17:58:51.167Z,3.25
2023-11-07T18:01:21.075Z,3.95
2023-11-07T18:03:50.922Z,3.60
2023-11-07T18:06:19.497Z,3.35
2023-11-07T18:08:48.463Z,3.60
2023-11-07T18:11:16.841Z,3.50
2023-11-07T18:13:45.176Z,4.10
2023-11-07T18:16:13.736Z,3.65
2023-11-07T18:18:57.322Z,4.45
2023-11-07T18:21:30.013Z,4.10
2023-11-07T18:23:58.620Z,4.40
2023-11-07T18:26:26.875Z,4.30
2023-11-07T18:28:55.192Z,4.43
2023-11-07T18:31:23.511Z,4.90
2023-11-07T18:33:51.927Z,4.55
2023-11-07T18:36:20.843Z,5.10
2023-11-07T18:38:50.974Z,4.88
2023-11-07T18:41:20.898Z,4.82
2023-11-07T18:43:49.835Z,4.88
2023-11-07T18:46:18.504Z,5.43
2023-11-07T18:48:46.872Z,5.55
2023-11-07T18:51:15.260Z,5.18
2023-11-07T18:53:46.019Z,5.13
2023-11-07T18:56:16.488Z,5.15
2023-11-07T18:58:44.997Z,5.25
2023-11-07T19:01:13.972Z,5.22
2023-11-07T19:03:42.441Z,5.43
2023-11-07T19:06:11.062Z,5.25
2023-11-07T19:08:40.549Z,5.68
2023-11-07T19:11:09.059Z,5.63
2023-11-07T19:13:38.741Z,5.53
2023-11-07T19:16:07.427Z,5.28
2023-11-07T19:18:39.114Z,5.32
2023-11-07T19:21:09.087Z,6.00
2023-11-07T19:23:37.569Z,5.70
2023-11-07T19:26:06.033Z,5.80
2023-11-07T19:28:34.916Z,5.90
2023-11-07T19:31:04.913Z,5.68
2023-11-07T19:33:33.261Z,5.10
2023-11-07T19:36:02.705Z,5.57
2023-11-07T19:38:31.903Z,5.75
2023-11-07T19:41:00.239Z,5.70
2023-11-07T19:43:38.357Z,5.97
2023-11-07T19:46:12.350Z,5.35
2023-11-07T19:48:42.470Z,6.22
2023-11-07T19:51:11.202Z,5.15
2023-11-07T19:53:42.638Z,5.60
2023-11-07T19:56:11.205Z,5.95
2023-11-07T19:58:53.770Z,4.85
2023-11-07T20:01:29.771Z,5.32
2023-11-07T20:03:58.623Z,5.50
2023-11-07T20:06:27.326Z,5.03
2023-11-07T20:08:56.368Z,5.13
2023-11-07T20:11:24.787Z,5.60
2023-11-07T20:13:53.167Z,5.45
2023-11-07T20:16:21.579Z,4.85
2023-11-07T20:18:51.509Z,5.30
2023-11-07T20:21:20.729Z,4.97
2023-11-07T20:23:49.155Z,4.60
2023-11-07T20:26:19.788Z,4.88
2023-11-07T20:28:51.059Z,4.80
2023-11-07T20:31:20.028Z,5.50
2023-11-07T20:33:50.357Z,5.25
2023-11-07T20:36:21.245Z,5.18
2023-11-07T20:38:51.329Z,5.00
2023-11-07T20:41:21.400Z,5.35
2023-11-07T20:43:55.806Z,5.15
2023-11-07T20:46:33.294Z,5.20
2023-11-07T20:49:05.030Z,5.20
2023-11-07T20:51:36.653Z,5.40
2023-11-07T20:54:05.845Z,5.25
2023-11-07T20:56:34.776Z,4.93
2023-11-07T20:59:04.319Z,6.00
2023-11-07T21:01:33.044Z,5.95
2023-11-07T21:04:02.695Z,6.18
2023-11-07T21:06:31.216Z,6.10
2023-11-07T21:09:01.095Z,6.20
2023-11-07T21:11:29.460Z,5.97
2023-11-07T21:13:57.774Z,5.93
2023-11-07T21:16:26.764Z,6.35
2023-11-07T21:18:55.769Z,5.80
2023-11-07T21:21:24.454Z,5.50
2023-11-07T21:23:53.412Z,6.07
2023-11-07T21:26:24.487Z,5.40
2023-11-07T21:28:53.780Z,5.88
2023-11-07T21:31:22.177Z,6.43
2023-11-07T21:33:51.153Z,5.80
2023-11-07T21:36:20.262Z,7.97
2023-11-07T21:38:49.210Z,6.88
2023-11-07T21:41:17.573Z,6.32
2023-11-07T21:43:47.301Z,6.88
2023-11-07T21:46:15.681Z,6.60
2023-11-07T21:48:46.518Z,7.18
2023-11-07T21:51:15.041Z,6.40
2023-11-07T21:53:43.582Z,7.07
2023-11-07T21:56:14.033Z,6.22
2023-11-07T21:58:43.265Z,6.45
2023-11-07T22:01:13.813Z,6.40
2023-11-07T22:03:42.642Z,6.43
2023-11-07T22:06:11.238Z,7.60
2023-11-07T22:08:39.711Z,6.97
2023-11-07T22:11:08.575Z,7.00
2023-11-07T22:13:37.403Z,7.07
2023-11-07T22:16:05.923Z,7.85
2023-11-07T22:18:35.954Z,7.05
2023-11-07T22:21:05.037Z,7.78
2023-11-07T22:23:33.478Z,6.78
2023-11-07T22:26:01.872Z,7.47
2023-11-07T22:28:30.393Z,7.70
2023-11-07T22:30:58.829Z,7.53
2023-11-07T22:33:27.216Z,7.57
2023-11-07T22:35:57.053Z,7.65
2023-11-07T22:38:27.585Z,7.10
2023-11-07T22:40:55.977Z,7.38
2023-11-07T22:43:24.518Z,6.85
2023-11-07T22:45:52.885Z,6.65
2023-11-07T22:48:21.999Z,6.55
2023-11-07T22:50:50.394Z,6.13
2023-11-07T22:53:20.455Z,7.25
2023-11-07T22:55:49.137Z,6.30
2023-11-07T22:58:17.490Z,6.53
2023-11-07T23:00:49.915Z,6.53
2023-11-07T23:03:18.604Z,7.35
2023-11-07T23:05:47.026Z,6.72
2023-11-07T23:08:17.346Z,7.38
2023-11-07T23:10:47.105Z,7.22
2023-11-07T23:13:16.274Z,7.47
2023-11-07T23:15:48.493Z,6.82
2023-11-07T23:18:17.049Z,8.18
2023-11-07T23:20:45.403Z,6.97
2023-11-07T23:23:14.815Z,7.00
2023-11-07T23:25:45.068Z,6.72
2023-11-07T23:28:15.101Z,7.85
2023-11-07T23:30:43.665Z,6.70
2023-11-07T23:33:12.519Z,7.55
2023-11-07T23:35:41.194Z,6.65
2023-11-07T23:38:10.435Z,6.95
2023-11-07T23:40:38.853Z,6.50
2023-11-07T23:43:07.158Z,7.47
2023-11-07T23:45:36.981Z,6.88
2023-11-07T23:48:05.863Z,7.28
2023-11-07T23:50:34.244Z,7.70
2023-11-07T23:53:02.548Z,7.30
2023-11-07T23:55:32.787Z,7.07
2023-11-07T23:58:01.272Z,6.72
